createdAt,value
2017-11-21T00:00:11.304Z,6.90
2017-11-21T00:02:40.287Z,6.90
2017-11-21T00:05:09.330Z,6.80
2017-11-21T00:07:39.106Z,6.80
2017-11-21T00:10:08.071Z,6.80
2017-11-21T00:12:37.821Z,6.80
2017-11-21T00:15:06.782Z,6.90
2017-11-21T00:17:35.765Z,6.90
2017-11-21T00:20:04.719Z,6.80
2017-11-21T00:22:34.461Z,6.80
2017-11-21T00:25:03.401Z,6.90
2017-11-21T00:27:32.349Z,6.90
2017-11-21T00:30:01.480Z,6.90
2017-11-21T00:32:31.253Z,6.90
2017-11-21T00:35:00.240Z,6.90
2017-11-21T00:37:29.255Z,6.90
2017-11-21T00:39:58.211Z,6.90
2017-11-21T00:42:27.977Z,6.90
2017-11-21T00:44:56.929Z,6.80
2017-11-21T00:47:26.000Z,6.80
2017-11-21T00:49:55.001Z,6.80
2017-11-21T00:52:24.010Z,6.90
2017-11-21T00:54:52.971Z,6.90
2017-11-21T00:57:22.731Z,6.90
2017-11-21T00:59:51.693Z,6.90
2017-11-21T01:02:20.650Z,7.00
2017-11-21T01:04:49.627Z,8.40
2017-11-21T01:07:18.585Z,7.00
2017-11-21T01:09:47.556Z,7.00
2017-11-21T01:12:16.540Z,7.00
2017-11-21T01:14:46.276Z,7.00
2017-11-21T01:17:15.230Z,7.00
2017-11-21T01:19:44.205Z,7.00
2017-11-21T01:22:13.184Z,7.00
2017-11-21T01:24:42.540Z,7.10
2017-11-21T01:27:11.517Z,7.10
2017-11-21T01:29:40.885Z,7.10
2017-11-21T01:32:09.843Z,7.10
2017-11-21T01:34:38.801Z,7.10
2017-11-21T01:37:07.766Z,7.00
2017-11-21T01:39:40.016Z,7.00
2017-11-21T01:42:08.997Z,7.00
2017-11-21T01:44:38.336Z,7.00
2017-11-21T01:47:07.407Z,7.00
2017-11-21T01:49:36.370Z,7.00
2017-11-21T01:52:05.307Z,7.00
2017-11-21T01:54:34.284Z,7.00
2017-11-21T01:57:03.238Z,7.00
2017-11-21T01:59:32.181Z,7.00
2017-11-21T02:02:01.201Z,7.00
2017-11-21T02:04:30.129Z,7.10
2017-11-21T02:06:59.125Z,7.10
2017-11-21T02:09:28.086Z,7.10
2017-11-21T02:11:57.813Z,7.10
2017-11-21T02:14:27.566Z,7.10
2017-11-21T02:16:56.508Z,7.10
2017-11-21T02:19:25.456Z,7.20
2017-11-21T02:21:54.428Z,7.20
2017-11-21T02:24:24.109Z,7.20
2017-11-21T02:26:53.062Z,7.20
2017-11-21T02:29:22.796Z,7.20
2017-11-21T02:31:51.774Z,7.20
2017-11-21T02:34:21.567Z,7.20
2017-11-21T02:36:50.558Z,7.20
2017-11-21T02:39:19.506Z,7.20
2017-11-21T02:41:48.438Z,7.30
2017-11-21T02:44:18.907Z,7.30
2017-11-21T02:46:47.852Z,7.30
2017-11-21T02:49:17.588Z,7.30
2017-11-21T02:51:47.323Z,7.30
2017-11-21T02:54:16.253Z,7.20
2017-11-21T02:56:45.232Z,7.20
2017-11-21T02:59:14.170Z,7.20
2017-11-21T03:01:44.029Z,7.10
2017-11-21T03:04:13.373Z,7.20
2017-11-21T03:06:42.336Z,7.20
2017-11-21T03:09:12.085Z,7.20
2017-11-21T03:11:41.864Z,7.20
2017-11-21T03:14:10.794Z,7.10
2017-11-21T03:16:39.768Z,7.10
2017-11-21T03:19:08.725Z,7.20
2017-11-21T03:21:49.497Z,7.20
2017-11-21T03:24:30.378Z,7.20
2017-11-21T03:27:11.326Z,7.20
2017-11-21T03:29:40.267Z,6.90
2017-11-21T03:32:09.634Z,6.90
2017-11-21T03:34:38.591Z,7.00
2017-11-21T03:37:07.548Z,7.00
2017-11-21T03:39:37.273Z,7.00
2017-11-21T03:42:06.996Z,7.10
2017-11-21T03:44:35.972Z,7.10
2017-11-21T03:47:05.699Z,7.10
2017-11-21T03:49:35.428Z,7.10
2017-11-21T03:52:04.363Z,7.20
2017-11-21T03:54:33.312Z,7.00
2017-11-21T03:57:03.084Z,6.90
2017-11-21T03:59:32.028Z,7.00
2017-11-21T04:02:01.002Z,6.90
2017-11-21T04:04:29.955Z,7.00
2017-11-21T04:06:59.844Z,7.00
2017-11-21T04:09:28.801Z,7.00
2017-11-21T04:11:58.537Z,7.00
2017-11-21T04:14:28.261Z,5.30
2017-11-21T04:16:57.355Z,7.20
2017-11-21T04:19:26.325Z,7.20
2017-11-21T04:21:55.273Z,7.20
2017-11-21T04:24:25.018Z,7.30
2017-11-21T04:26:53.949Z,7.20
2017-11-21T04:29:23.364Z,7.30
2017-11-21T04:31:53.074Z,7.30
2017-11-21T04:34:22.422Z,7.40
2017-11-21T04:36:51.369Z,7.30
2017-11-21T04:39:21.106Z,7.40
2017-11-21T04:41:50.096Z,7.40
2017-11-21T04:44:19.078Z,7.50
2017-11-21T04:46:48.097Z,7.60
2017-11-21T04:49:17.054Z,7.60
2017-11-21T04:51:46.471Z,7.60
2017-11-21T04:54:16.197Z,7.70
2017-11-21T04:56:45.179Z,7.60
2017-11-21T04:59:15.360Z,7.70
2017-11-21T05:01:44.326Z,7.70
2017-11-21T05:04:13.725Z,7.70
2017-11-21T05:06:43.054Z,7.70
2017-11-21T05:09:12.788Z,7.70
2017-11-21T05:11:42.146Z,7.80
2017-11-21T05:14:11.898Z,7.80
2017-11-21T05:16:42.595Z,7.80
2017-11-21T05:19:11.583Z,7.80
2017-11-21T05:21:40.918Z,7.90
2017-11-21T05:24:10.668Z,7.90
2017-11-21T05:26:39.637Z,7.90
2017-11-21T05:29:08.628Z,7.90
2017-11-21T05:31:38.346Z,7.90
2017-11-21T05:34:07.729Z,7.90
2017-11-21T05:36:36.698Z,8.00
2017-11-21T05:39:05.687Z,8.00
2017-11-21T05:41:34.709Z,8.00
2017-11-21T05:44:03.641Z,8.00
2017-11-21T05:46:32.629Z,8.10
2017-11-21T05:49:02.336Z,8.10
2017-11-21T05:51:31.278Z,8.00
2017-11-21T05:54:00.654Z,8.10
2017-11-21T05:56:29.598Z,8.10
2017-11-21T05:58:58.561Z,8.10
2017-11-21T06:01:27.607Z,8.10
2017-11-21T06:03:56.575Z,8.10
2017-11-21T06:06:25.530Z,8.10
2017-11-21T06:08:55.262Z,8.10
2017-11-21T06:11:24.998Z,8.10
2017-11-21T06:13:54.038Z,8.10
2017-11-21T06:16:22.990Z,8.10
2017-11-21T06:18:51.949Z,8.10
2017-11-21T06:21:21.690Z,8.20
2017-11-21T06:23:50.686Z,8.10
2017-11-21T06:26:19.667Z,8.10
2017-11-21T06:28:48.642Z,8.10
2017-11-21T06:31:17.605Z,8.10
2017-11-21T06:33:47.341Z,8.10
2017-11-21T06:36:16.289Z,8.10
2017-11-21T06:38:46.042Z,8.10
2017-11-21T06:41:15.129Z,8.20
2017-11-21T06:43:44.862Z,8.20
2017-11-21T06:46:13.853Z,8.20
2017-11-21T06:48:42.814Z,8.10
2017-11-21T06:51:12.553Z,8.10
2017-11-21T06:53:41.949Z,8.10
2017-11-21T06:56:11.338Z,8.10
2017-11-21T06:58:41.077Z,8.10
2017-11-21T07:01:10.473Z,8.10
2017-11-21T07:03:39.436Z,8.10
2017-11-21T07:06:08.425Z,8.20
2017-11-21T07:08:38.122Z,8.10
2017-11-21T07:11:07.524Z,8.20
2017-11-21T07:13:36.480Z,8.20
2017-11-21T07:16:06.220Z,8.30
2017-11-21T07:18:35.230Z,8.20
2017-11-21T07:21:04.955Z,8.20
2017-11-21T07:23:34.022Z,8.20
2017-11-21T07:26:03.761Z,8.20
2017-11-21T07:28:32.701Z,8.20
2017-11-21T07:31:01.727Z,8.30
2017-11-21T07:33:30.687Z,8.30
2017-11-21T07:35:59.659Z,8.30
2017-11-21T07:38:28.616Z,8.30
2017-11-21T07:40:57.610Z,8.30
2017-11-21T07:43:26.582Z,8.30
2017-11-21T07:45:56.344Z,8.40
2017-11-21T07:48:25.322Z,8.40
2017-11-21T07:50:54.298Z,8.50
2017-11-21T07:53:23.868Z,8.50
2017-11-21T07:55:54.078Z,8.50
2017-11-21T07:58:23.044Z,8.50
2017-11-21T08:00:51.994Z,8.60
2017-11-21T08:03:21.744Z,8.60
2017-11-21T08:05:50.711Z,8.70
2017-11-21T08:08:19.700Z,8.70
2017-11-21T08:10:48.672Z,8.80
2017-11-21T08:13:17.599Z,9.00
2017-11-21T08:15:46.577Z,9.10
2017-11-21T08:18:15.525Z,9.30
2017-11-21T08:20:44.922Z,9.30
2017-11-21T08:23:13.883Z,9.40
2017-11-21T08:25:42.942Z,9.40
2017-11-21T08:28:11.884Z,9.40
2017-11-21T08:30:40.919Z,9.60
2017-11-21T08:33:10.655Z,9.50
2017-11-21T08:35:39.729Z,9.70
2017-11-21T08:38:09.059Z,9.60
2017-11-21T08:40:39.200Z,9.60
2017-11-21T08:43:08.235Z,9.70
2017-11-21T08:45:37.984Z,9.70
2017-11-21T08:48:06.977Z,9.80
2017-11-21T08:50:35.915Z,9.80
2017-11-21T08:53:04.887Z,9.80
2017-11-21T08:55:33.861Z,9.70
2017-11-21T08:58:02.921Z,9.70
2017-11-21T09:00:32.653Z,9.70
2017-11-21T09:03:02.553Z,9.70
2017-11-21T09:05:31.498Z,9.70
2017-11-21T09:08:00.862Z,9.60
2017-11-21T09:10:29.826Z,9.60
2017-11-21T09:12:58.834Z,9.60
2017-11-21T09:15:28.693Z,9.60
2017-11-21T09:17:57.667Z,9.60
2017-11-21T09:20:27.243Z,9.70
2017-11-21T09:22:56.606Z,9.60
2017-11-21T09:25:25.596Z,9.70
2017-11-21T09:27:54.547Z,9.70
2017-11-21T09:30:23.992Z,9.80
2017-11-21T09:32:52.938Z,9.80
2017-11-21T09:35:21.944Z,9.80
2017-11-21T09:37:50.990Z,10.00
2017-11-21T09:40:20.411Z,10.00
2017-11-21T09:42:49.409Z,9.90
2017-11-21T09:45:18.396Z,9.90
2017-11-21T09:47:47.342Z,9.90
2017-11-21T09:50:16.327Z,10.00
2017-11-21T09:52:45.352Z,10.00
2017-11-21T09:55:14.320Z,10.10
2017-11-21T09:57:43.371Z,10.10
2017-11-21T10:00:12.505Z,10.20
2017-11-21T10:02:41.494Z,10.30
2017-11-21T10:05:10.556Z,10.10
2017-11-21T10:07:39.639Z,10.00
2017-11-21T10:10:08.620Z,10.10
2017-11-21T10:12:38.092Z,10.20
2017-11-21T10:15:07.105Z,10.20
2017-11-21T10:17:36.832Z,10.40
2017-11-21T10:20:05.816Z,10.60
2017-11-21T10:22:35.164Z,10.50
2017-11-21T10:25:04.925Z,10.50
2017-11-21T10:27:34.653Z,10.40
2017-11-21T10:30:03.611Z,10.50
2017-11-21T10:32:33.375Z,10.60
2017-11-21T10:35:02.806Z,10.50
2017-11-21T10:37:31.815Z,10.30
2017-11-21T10:40:00.951Z,10.30
2017-11-21T10:42:30.407Z,10.50
2017-11-21T10:44:59.403Z,10.50
2017-11-21T10:47:28.342Z,10.60
2017-11-21T10:49:57.356Z,10.50
2017-11-21T10:52:26.331Z,10.60
2017-11-21T10:54:55.341Z,10.70
2017-11-21T10:57:24.316Z,10.60
2017-11-21T10:59:53.280Z,10.50
2017-11-21T11:02:22.347Z,10.60
2017-11-21T11:04:51.337Z,10.60
2017-11-21T11:07:20.280Z,10.70
2017-11-21T11:09:50.039Z,10.70
2017-11-21T11:12:18.995Z,10.60
2017-11-21T11:14:47.990Z,10.60
2017-11-21T11:17:16.940Z,10.70
2017-11-21T11:19:45.991Z,10.70
2017-11-21T11:22:14.980Z,10.80
2017-11-21T11:24:43.929Z,10.90
2017-11-21T11:27:13.676Z,10.90
2017-11-21T11:29:42.629Z,11.00
2017-11-21T11:32:11.622Z,11.00
2017-11-21T11:34:40.594Z,10.90
2017-11-21T11:37:10.873Z,11.00
2017-11-21T11:39:40.265Z,11.00
2017-11-21T11:42:09.233Z,11.00
2017-11-21T11:44:38.337Z,11.00
2017-11-21T11:47:07.299Z,10.90
2017-11-21T11:49:37.035Z,11.00
2017-11-21T11:52:06.040Z,11.10
2017-11-21T11:54:35.004Z,11.10
2017-11-21T11:57:04.090Z,10.90
2017-11-21T11:59:33.831Z,10.80
2017-11-21T12:02:02.806Z,10.70
2017-11-21T12:04:31.776Z,10.70
2017-11-21T12:07:01.539Z,10.80
2017-11-21T12:09:30.475Z,10.80
2017-11-21T12:12:00.365Z,10.80
2017-11-21T12:14:30.830Z,10.80
2017-11-21T12:16:59.831Z,10.70
2017-11-21T12:19:28.869Z,10.70
2017-11-21T12:21:57.818Z,10.70
2017-11-21T12:24:27.886Z,10.90
2017-11-21T12:26:56.853Z,10.90
2017-11-21T12:29:27.031Z,10.90
2017-11-21T12:31:56.770Z,11.00
2017-11-21T12:34:26.222Z,11.10
2017-11-21T12:36:55.201Z,11.20
2017-11-21T12:39:25.121Z,11.30
2017-11-21T12:41:54.146Z,11.30
2017-11-21T12:44:23.116Z,11.30
2017-11-21T12:46:52.108Z,11.20
2017-11-21T12:49:22.860Z,11.20
2017-11-21T12:51:52.648Z,11.20
2017-11-21T12:54:21.750Z,11.10
2017-11-21T12:56:50.715Z,11.20
2017-11-21T12:59:19.776Z,11.20
2017-11-21T13:01:48.807Z,11.20
2017-11-21T13:04:17.814Z,10.90
2017-11-21T13:06:46.819Z,10.90
2017-11-21T13:09:16.650Z,11.00
2017-11-21T13:11:45.617Z,11.00
2017-11-21T13:14:14.634Z,11.00
2017-11-21T13:16:44.190Z,11.10
2017-11-21T13:19:13.535Z,11.00
2017-11-21T13:21:42.569Z,11.00
2017-11-21T13:24:11.548Z,11.00
2017-11-21T13:26:40.520Z,11.00
2017-11-21T13:29:09.524Z,11.10
2017-11-21T13:31:38.502Z,11.00
2017-11-21T13:34:07.485Z,11.00
2017-11-21T13:36:37.233Z,11.10
2017-11-21T13:39:06.963Z,11.10
2017-11-21T13:41:35.905Z,11.00
2017-11-21T13:44:04.927Z,10.90
2017-11-21T13:46:34.306Z,10.90
2017-11-21T13:49:03.813Z,11.10
2017-11-21T13:51:32.822Z,11.00
2017-11-21T13:54:01.876Z,11.00
2017-11-21T13:56:31.215Z,11.00
2017-11-21T13:59:00.154Z,10.90
2017-11-21T14:01:29.131Z,11.00
2017-11-21T14:03:58.484Z,11.00
2017-11-21T14:06:27.446Z,11.00
2017-11-21T14:08:57.175Z,11.00
2017-11-21T14:11:26.523Z,11.10
2017-11-21T14:13:55.486Z,11.00
2017-11-21T14:16:24.445Z,11.10
2017-11-21T14:18:54.179Z,11.10
2017-11-21T14:21:23.249Z,11.20
2017-11-21T14:23:52.168Z,11.20
2017-11-21T14:26:21.171Z,11.10
2017-11-21T14:28:50.154Z,11.20
2017-11-21T14:31:19.077Z,11.20
2017-11-21T14:33:48.210Z,11.40
2017-11-21T14:36:17.246Z,11.30
2017-11-21T14:38:46.240Z,11.30
2017-11-21T14:41:15.188Z,11.20
2017-11-21T14:43:44.923Z,11.20
2017-11-21T14:46:14.063Z,11.30
2017-11-21T14:48:43.025Z,11.20
2017-11-21T14:51:12.410Z,11.20
2017-11-21T14:53:41.377Z,11.10
2017-11-21T14:56:10.790Z,11.10
2017-11-21T14:58:39.742Z,11.20
2017-11-21T15:01:08.701Z,11.20
2017-11-21T15:03:37.788Z,11.10
2017-11-21T15:06:06.767Z,11.00
2017-11-21T15:08:35.720Z,11.10
2017-11-21T15:11:05.565Z,11.00
2017-11-21T15:13:35.308Z,10.90
2017-11-21T15:16:04.271Z,11.00
2017-11-21T15:18:33.240Z,11.10
2017-11-21T15:21:03.008Z,11.20
2017-11-21T15:23:32.018Z,11.30
2017-11-21T15:26:00.971Z,11.20
2017-11-21T15:28:29.945Z,11.30
2017-11-21T15:30:58.925Z,11.30
2017-11-21T15:33:28.647Z,11.30
2017-11-21T15:35:57.665Z,11.20
2017-11-21T15:38:26.618Z,11.20
2017-11-21T15:40:56.386Z,11.20
2017-11-21T15:43:25.560Z,11.30
2017-11-21T15:45:55.900Z,11.30
2017-11-21T15:48:24.902Z,11.20
2017-11-21T15:50:53.895Z,11.10
2017-11-21T15:53:22.887Z,11.10
2017-11-21T15:55:51.862Z,11.20
2017-11-21T15:58:20.827Z,11.20
2017-11-21T16:00:49.822Z,11.20
2017-11-21T16:03:18.776Z,11.20
2017-11-21T16:05:47.753Z,11.20
2017-11-21T16:08:17.506Z,11.20
2017-11-21T16:10:46.466Z,11.20
2017-11-21T16:13:15.476Z,11.30
2017-11-21T16:15:45.289Z,11.30
2017-11-21T16:18:15.037Z,11.30
2017-11-21T16:20:44.818Z,11.20
2017-11-21T16:23:14.556Z,11.30
2017-11-21T16:25:43.543Z,11.30
2017-11-21T16:28:12.512Z,11.30
2017-11-21T16:30:41.507Z,11.20
2017-11-21T16:33:10.490Z,11.10
2017-11-21T16:35:40.225Z,11.20
2017-11-21T16:38:09.211Z,11.20
2017-11-21T16:40:38.263Z,11.20
2017-11-21T16:43:07.644Z,11.00
2017-11-21T16:45:36.605Z,10.90
2017-11-21T16:48:05.588Z,10.90
2017-11-21T16:50:34.545Z,11.10
2017-11-21T16:53:04.256Z,11.10
2017-11-21T16:55:34.027Z,11.10
2017-11-21T16:58:02.971Z,11.10
2017-11-21T17:00:32.971Z,11.20
2017-11-21T17:03:02.699Z,11.30
2017-11-21T17:05:32.815Z,11.30
2017-11-21T17:08:02.551Z,11.30
2017-11-21T17:10:32.293Z,11.30
2017-11-21T17:13:01.244Z,11.30
2017-11-21T17:15:30.608Z,11.30
2017-11-21T17:17:59.618Z,11.30
2017-11-21T17:20:28.969Z,11.40
2017-11-21T17:22:57.995Z,11.40
2017-11-21T17:25:26.990Z,11.40
2017-11-21T17:27:55.958Z,11.50
2017-11-21T17:30:25.017Z,11.40
2017-11-21T17:32:54.211Z,11.40
2017-11-21T17:35:23.570Z,11.50
2017-11-21T17:37:53.314Z,11.40
2017-11-21T17:40:22.284Z,11.40
2017-11-21T17:42:52.001Z,11.30
2017-11-21T17:45:21.773Z,11.40
2017-11-21T17:47:50.798Z,11.30
2017-11-21T17:50:20.547Z,11.30
2017-11-21T17:52:49.663Z,11.40
2017-11-21T17:55:18.649Z,11.40
2017-11-21T17:57:47.680Z,11.30
2017-11-21T18:00:16.621Z,11.30
2017-11-21T18:02:45.676Z,11.30
2017-11-21T18:05:15.380Z,11.30
2017-11-21T18:07:45.131Z,11.30
2017-11-21T18:10:14.875Z,11.30
2017-11-21T18:12:43.840Z,11.30
2017-11-21T18:15:12.861Z,11.20
2017-11-21T18:17:42.257Z,11.30
2017-11-21T18:20:11.682Z,11.40
2017-11-21T18:22:40.650Z,11.50
2017-11-21T18:25:09.611Z,11.40
2017-11-21T18:27:38.587Z,11.40
2017-11-21T18:30:08.166Z,11.30
2017-11-21T18:32:37.399Z,11.20
2017-11-21T18:35:07.148Z,11.20
2017-11-21T18:37:37.684Z,11.20
2017-11-21T18:40:07.439Z,11.20
2017-11-21T18:42:37.230Z,11.40
2017-11-21T18:45:06.569Z,11.30
2017-11-21T18:47:35.539Z,11.30
2017-11-21T18:50:04.526Z,11.30
2017-11-21T18:52:34.305Z,11.10
2017-11-21T18:55:03.322Z,11.10
2017-11-21T18:57:32.827Z,11.10
2017-11-21T19:00:02.573Z,11.20
2017-11-21T19:02:31.616Z,11.30
2017-11-21T19:05:00.582Z,11.20
2017-11-21T19:07:32.018Z,11.30
2017-11-21T19:10:01.415Z,11.30
2017-11-21T19:12:30.426Z,11.30
2017-11-21T19:14:59.454Z,11.30
2017-11-21T19:17:29.139Z,11.30
2017-11-21T19:19:58.569Z,11.30
2017-11-21T19:22:27.546Z,11.30
2017-11-21T19:24:57.315Z,11.30
2017-11-21T19:27:26.300Z,11.30
2017-11-21T19:29:55.351Z,11.30
2017-11-21T19:32:25.166Z,11.30
2017-11-21T19:34:55.020Z,11.20
2017-11-21T19:37:24.027Z,11.10
2017-11-21T19:39:53.770Z,11.20
2017-11-21T19:42:22.848Z,11.20
2017-11-21T19:44:51.884Z,11.20
2017-11-21T19:47:20.884Z,11.20
2017-11-21T19:49:49.960Z,11.30
2017-11-21T19:52:19.741Z,11.20
2017-11-21T19:54:49.586Z,11.20
2017-11-21T19:57:18.690Z,11.30
2017-11-21T19:59:47.865Z,11.20
2017-11-21T20:02:17.680Z,11.20
2017-11-21T20:04:47.474Z,11.20
2017-11-21T20:07:16.504Z,11.20
2017-11-21T20:09:45.592Z,11.20
2017-11-21T20:12:14.681Z,11.20
2017-11-21T20:14:43.768Z,11.10
2017-11-21T20:17:13.557Z,11.20
2017-11-21T20:19:45.194Z,11.30
2017-11-21T20:22:14.208Z,11.20
2017-11-21T20:24:43.246Z,11.20
2017-11-21T20:27:12.321Z,11.20
2017-11-21T20:29:42.102Z,11.20
2017-11-21T20:32:12.055Z,11.20
2017-11-21T20:34:41.048Z,11.20
2017-11-21T20:37:10.050Z,11.20
2017-11-21T20:39:40.056Z,11.10
2017-11-21T20:42:09.129Z,11.00
2017-11-21T20:44:38.949Z,11.10
2017-11-21T20:47:07.951Z,11.10
2017-11-21T20:49:37.930Z,11.10
2017-11-21T20:52:07.006Z,11.10
2017-11-21T20:54:36.011Z,11.20
2017-11-21T20:57:05.229Z,10.90
2017-11-21T20:59:35.864Z,11.20
2017-11-21T21:02:05.681Z,11.10
2017-11-21T21:04:36.442Z,11.10
2017-11-21T21:07:05.423Z,11.20
2017-11-21T21:09:34.496Z,11.10
2017-11-21T21:12:03.505Z,11.20
2017-11-21T21:14:32.558Z,11.20
2017-11-21T21:17:01.574Z,11.20
2017-11-21T21:19:31.119Z,11.10
2017-11-21T21:22:00.703Z,11.10
2017-11-21T21:24:29.918Z,11.00
2017-11-21T21:27:00.170Z,11.00
2017-11-21T21:29:29.937Z,11.10
2017-11-21T21:31:59.058Z,11.00
2017-11-21T21:34:28.500Z,11.00
2017-11-21T21:36:57.667Z,11.00
2017-11-21T21:39:26.724Z,10.80
2017-11-21T21:41:56.153Z,11.00
2017-11-21T21:44:25.897Z,10.90
2017-11-21T21:46:56.405Z,10.90
2017-11-21T21:49:26.158Z,11.00
2017-11-21T21:51:55.954Z,10.90
2017-11-21T21:54:25.702Z,11.00
2017-11-21T21:56:54.680Z,11.00
2017-11-21T21:59:24.130Z,11.00
2017-11-21T22:01:53.134Z,11.00
2017-11-21T22:04:22.931Z,10.90
2017-11-21T22:06:52.715Z,10.90
2017-11-21T22:09:21.812Z,10.90
2017-11-21T22:11:50.802Z,10.90
2017-11-21T22:14:19.876Z,10.80
2017-11-21T22:16:49.692Z,10.80
2017-11-21T22:19:18.747Z,10.80
2017-11-21T22:21:47.795Z,10.80
2017-11-21T22:24:17.140Z,10.70
2017-11-21T22:26:46.171Z,10.70
2017-11-21T22:29:15.174Z,10.70
2017-11-21T22:31:44.606Z,10.70
2017-11-21T22:34:13.632Z,10.70
2017-11-21T22:36:42.637Z,10.70
2017-11-21T22:39:12.393Z,10.60
2017-11-21T22:41:41.747Z,10.70
2017-11-21T22:44:11.513Z,10.80
2017-11-21T22:46:40.470Z,10.70
2017-11-21T22:49:09.872Z,10.70
2017-11-21T22:51:38.841Z,10.70
2017-11-21T22:54:08.252Z,10.70
2017-11-21T22:56:37.631Z,10.70
2017-11-21T22:59:07.021Z,10.50
2017-11-21T23:01:36.562Z,10.60
2017-11-21T23:04:06.273Z,10.60
2017-11-21T23:06:35.266Z,10.60
2017-11-21T23:09:05.072Z,10.60
2017-11-21T23:11:34.777Z,10.60
2017-11-21T23:14:04.512Z,10.50
2017-11-21T23:16:33.467Z,10.50
2017-11-21T23:19:03.229Z,10.50
2017-11-21T23:21:32.628Z,10.50
2017-11-21T23:24:02.371Z,10.50
2017-11-21T23:26:32.155Z,10.50
2017-11-21T23:29:01.305Z,10.40
2017-11-21T23:31:30.269Z,10.50
2017-11-21T23:33:59.660Z,10.40
2017-11-21T23:36:29.396Z,10.40
2017-11-21T23:38:59.148Z,10.40
2017-11-21T23:41:28.524Z,10.40
2017-11-21T23:43:58.645Z,10.30
2017-11-21T23:46:28.493Z,10.30
2017-11-21T23:48:58.299Z,10.30
2017-11-21T23:51:27.638Z,10.30
2017-11-21T23:53:57.141Z,10.40
2017-11-21T23:56:26.315Z,10.30
2017-11-21T23:58:55.305Z,10.30
